PILOTS ONLINE: 269    ATC ONLINE: 58

KLTS - Altus Air Force Base

Location

City Altus
Country  United States
Latitude 34° 40' 1" N
Longitude 99° 16' 0" W
Elevation 1382 ft
Type Large Airport

Runways

17/35 3501 ft / 94 ft
174/354 3501 ft / 94 ft
17L/35R 9000 ft / 150 ft
17R/35L 13440 ft / 150 ft

Weather

METAR
2014/08/01 02:55
KLTS 010255Z 02005KT 10SM CLR 20/19 A3007 RMK AO2A SLP170 T01970189 53004 $
TAF
2014/07/31 18:06
TAF 
      AMD KLTS 3118/0123 01010G15KT 9999 BKN020 QNH3008INS 
      BECMG 3120/3121 01010G15KT 9999 SCT020 QNH3007INS 
      BECMG 0102/0103 VRB06KT 9999 SCT035 QNH3012INS 
      BECMG 0116/0117 06009KT 9999 SKC QNH3004INS TX28/3120Z TN17/0111Z 
      AMD 311802

Outbound flights

Inbound flights